Date,TemperatureHighF,TemperatureAvgF,TemperatureLowF,DewpointHighF,DewpointAvgF,DewpointLowF,HumidityHigh,HumidityAvg,HumidityLow,PressureMaxIn,PressureMinIn,WindSpeedMaxMPH,WindSpeedAvgMPH,GustSpeedMaxMPH,PrecipitationSumIn
2014-1-1,31.0,25.0,15.0,20.0,14.3,7.0,86,64,51,30.41,30.26,5,1,10,0.00
2014-1-2,28.0,21.5,12.0,21.0,17.4,10.0,92,84,71,30.27,29.71,9,4,20,0.00
2014-1-3,15.0,9.8,5.0,10.0,1.5,-7.0,90,70,48,30.47,29.67,14,5,28,0.00
2014-1-4,24.0,12.8,1.0,10.0,1.2,-99.9,87,63,39,30.53,30.30,8,1,21,0.00
2014-1-5,33.0,21.2,7.0,32.0,18.4,4.0,98,89,74,30.32,29.77,2,0,5,0.05
2014-1-6,53.0,39.9,18.0,53.0,34.0,1.0,99,81,46,29.78,29.38,14,4,32,0.54
2014-1-7,17.0,6.4,2.0,2.0,-9.9,-15.0,54,46,37,30.37,29.71,14,6,27,0.04
2014-1-8,22.0,12.2,4.0,7.0,-1.0,-7.0,69,55,40,30.56,30.37,7,2,13,0.00
2014-1-9,29.0,18.8,13.0,15.0,10.7,6.0,86,71,47,30.66,30.49,10,1,18,0.00
2014-1-10,33.0,28.8,20.0,32.0,25.1,15.0,97,86,73,30.60,30.22,0,0,3,0.09
2014-1-11,56.0,45.0,33.0,56.0,43.3,-99.9,100,97,92,30.22,29.31,8,2,19,0.77
2014-1-12,52.0,42.6,36.0,51.0,30.9,26.0,95,63,52,30.06,29.39,11,5,25,0.18
2014-1-13,49.0,38.6,26.0,40.0,32.0,24.0,94,78,62,30.14,29.90,4,1,12,0.00
2014-1-14,45.0,43.1,41.0,44.0,40.7,36.0,97,92,78,29.90,29.67,6,0,12,0.36
2014-1-15,47.0,36.6,29.0,41.0,34.8,28.0,99,94,80,30.00,29.84,3,0,7,0.05
2014-1-16,40.0,36.0,32.0,37.0,31.3,29.0,97,83,71,29.95,29.85,6,2,11,0.01
2014-1-17,43.0,32.1,23.0,29.0,26.3,22.0,97,80,51,29.99,29.89,6,1,12,0.00
2014-1-18,37.0,31.3,27.0,32.0,25.0,-99.9,96,80,67,29.89,29.67,9,3,22,0.07
2014-1-19,33.0,27.9,23.0,24.0,19.1,15.0,76,69,61,29.85,29.65,10,3,21,0.01
2014-1-20,41.0,35.7,28.0,30.0,24.3,12.0,74,63,54,29.91,29.57,11,4,22,0.02
2014-1-21,27.0,16.2,8.0,14.0,8.7,0.0,90,74,50,30.01,29.87,14,5,24,0.01
2014-1-22,16.0,8.7,2.0,-1.0,-4.3,-7.0,66,55,42,30.01,29.81,12,6,26,0.00
2014-1-23,19.0,10.7,3.0,4.0,-0.2,-5.0,75,61,45,30.29,30.00,7,2,20,0.00
2014-1-24,20.0,12.5,7.0,3.0,-1.3,-4.0,70,54,34,30.38,30.08,12,4,23,0.00
2014-1-25,23.0,19.1,15.0,20.0,10.2,-99.9,91,71,52,30.09,29.45,9,3,22,0.00
2014-1-26,24.0,18.7,13.0,17.0,6.8,-2.0,89,60,41,29.90,29.45,8,3,21,0.00
2014-1-27,41.0,26.6,18.0,28.0,12.9,-3.0,80,58,31,30.08,29.62,14,3,29,0.00
2014-1-28,18.0,14.0,9.0,0.0,-6.1,-11.0,58,40,27,30.36,30.08,8,2,19,0.00
2014-1-29,24.0,15.9,10.0,9.0,-0.3,-6.0,86,51,27,30.29,30.09,8,2,18,0.00
2014-1-30,29.0,19.0,6.0,12.0,3.7,-2.0,76,52,35,30.45,30.21,5,1,14,0.00
2014-1-31,39.0,29.6,20.0,20.0,13.1,8.0,64,50,38,30.23,30.10,6,1,12,0.00
2014-2-1,45.0,34.5,26.0,30.0,22.2,-99.9,85,64,43,30.33,30.03,5,1,13,0.00
2014-2-2,53.0,39.7,28.0,40.0,33.1,26.0,94,78,53,30.10,29.91,5,1,12,0.00
2014-2-3,40.0,30.6,25.0,34.0,28.6,22.0,97,93,79,30.32,30.08,6,2,13,0.00
2014-2-4,35.0,26.2,18.0,25.0,21.5,16.0,95,83,59,30.48,30.25,3,1,9,0.13
2014-2-5,32.0,29.1,26.0,31.0,27.6,23.0,97,95,79,30.27,29.65,6,1,14,0.01
2014-2-6,30.0,23.2,17.0,27.0,17.8,12.0,93,80,59,30.29,29.96,9,2,20,0.00
2014-2-7,33.0,25.0,18.0,18.0,14.6,9.0,89,66,44,30.32,30.20,7,2,13,0.00
2014-2-8,29.0,23.5,16.0,12.0,5.1,-1.0,60,45,30,30.33,30.14,4,1,12,0.00
2014-2-9,29.0,22.2,13.0,21.0,10.9,2.0,92,63,43,30.20,29.99,3,1,9,0.00
2014-2-10,26.0,21.5,15.0,19.0,10.6,6.0,92,63,47,30.28,29.99,9,4,24,0.00
2014-2-11,24.0,17.8,13.0,9.0,5.1,3.0,75,58,41,30.48,30.27,8,3,18,0.00
2014-2-12,25.0,16.2,4.0,12.0,4.5,-1.0,83,61,38,30.58,30.32,4,1,9,0.00
2014-2-13,32.0,27.0,20.0,32.0,25.8,13.0,98,95,73,30.32,29.02,11,5,23,0.00
2014-2-14,40.0,34.2,28.0,31.0,26.4,24.0,98,74,54,29.77,29.02,13,5,31,0.41
2014-2-15,36.0,28.9,25.0,30.0,23.4,-99.9,96,84,65,29.78,29.59,13,4,33,0.01
2014-2-16,27.0,22.3,19.0,17.0,11.5,8.0,78,63,49,30.10,29.74,13,6,30,0.01
2014-2-17,33.0,21.6,15.0,12.0,5.4,-1.0,75,51,28,30.39,30.10,11,4,23,0.00
2014-2-18,39.0,28.2,20.0,33.0,22.1,10.0,94,78,54,30.33,29.94,8,1,20,0.10
2014-2-19,43.0,31.2,20.0,40.0,28.6,18.0,97,90,76,30.10,29.69,11,1,21,0.35
2014-2-20,51.0,40.2,31.0,34.0,28.9,23.0,95,65,39,30.24,29.96,9,1,20,0.02
2014-2-21,45.0,37.6,31.0,45.0,36.5,30.0,99,97,90,30.04,29.66,4,0,20,0.16
2014-2-22,54.0,38.7,24.0,35.0,23.9,-99.9,98,64,27,30.04,29.91,12,3,25,0.02
2014-2-23,53.0,41.4,26.0,31.0,27.5,23.0,91,61,39,30.01,29.83,6,1,19,0.01
2014-2-24,44.0,32.9,24.0,30.0,14.5,7.0,59,46,35,30.07,29.80,12,6,24,0.00
2014-2-25,32.0,24.0,16.0,17.0,11.4,7.0,81,59,45,30.08,29.92,9,2,25,0.00
2014-2-26,29.0,21.1,13.0,21.0,8.9,-5.0,88,61,31,29.97,29.82,13,3,24,0.00
2014-2-27,30.0,17.6,6.0,16.0,2.8,-13.0,80,54,34,30.10,29.62,14,4,26,0.00
2014-2-28,24.0,14.1,6.0,4.0,-4.7,-13.0,68,43,28,30.43,30.09,7,2,17,0.00
2014-3-1,36.0,23.4,8.0,16.0,8.2,-99.9,79,55,37,30.43,30.14,5,1,13,0.00
2014-3-2,38.0,33.8,29.0,26.0,19.9,15.0,65,57,51,30.14,29.98,6,2,14,0.00
2014-3-3,29.0,19.4,14.0,16.0,3.8,-3.0,75,50,41,30.34,30.02,12,5,23,0.00
2014-3-4,30.0,19.1,7.0,7.0,0.6,-4.0,66,45,26,30.43,30.25,4,1,9,0.00
2014-3-5,35.0,28.4,22.0,15.0,11.0,7.0,65,49,33,30.46,30.21,8,2,18,0.00
2014-3-6,30.0,20.7,11.0,11.0,1.4,-4.0,65,44,27,30.64,30.46,10,2,22,0.00
2014-3-7,38.0,29.4,17.0,28.0,20.1,8.0,75,68,59,30.50,29.93,4,1,8,0.00
2014-3-8,55.0,42.0,28.0,32.0,27.5,-99.9,94,61,37,29.93,29.77,10,3,20,0.00
2014-3-9,41.0,36.8,33.0,28.0,18.8,11.0,69,49,30,30.02,29.88,11,4,23,0.00
2014-3-10,50.0,40.6,34.0,32.0,25.9,12.0,82,56,40,29.93,29.61,6,2,12,0.00
2014-3-11,63.0,47.7,32.0,38.0,32.1,29.0,89,59,30,29.70,29.54,9,2,23,0.00
2014-3-12,52.0,44.9,32.0,47.0,38.3,28.0,96,78,61,29.69,29.02,17,1,31,0.21
2014-3-13,31.0,20.6,15.0,27.0,5.0,-1.0,84,51,31,30.09,29.14,18,11,38,0.20
2014-3-14,45.0,29.9,14.0,27.0,11.7,0.0,72,48,30,30.22,29.91,9,3,20,0.00
2014-3-15,55.0,46.1,36.0,33.0,27.5,22.0,76,50,32,30.00,29.75,12,4,30,0.00
2014-3-16,41.0,31.0,27.0,23.0,9.3,-99.9,56,42,30,30.19,29.99,15,6,27,0.00
2014-3-17,33.0,25.3,19.0,7.0,1.5,-99.9,48,37,26,30.15,30.04,9,4,17,0.00
2014-3-18,43.0,32.3,19.0,19.0,5.9,-4.0,66,36,14,30.29,30.15,6,1,13,0.00
2014-3-19,40.0,32.9,24.0,37.0,28.0,19.0,97,83,65,30.32,29.87,5,1,13,0.79
2014-3-20,52.0,43.2,37.0,41.0,30.4,-99.9,98,67,37,29.89,29.72,14,5,28,0.86
2014-3-21,49.0,40.5,32.0,24.0,20.3,-99.9,70,47,33,30.05,29.89,15,5,27,0.00
2014-3-22,61.0,44.1,29.0,38.0,28.6,23.0,81,58,28,30.05,29.75,12,4,27,0.00
2014-3-23,39.0,35.0,26.0,27.0,15.9,-99.9,62,48,30,30.11,29.98,10,5,23,0.00
2014-3-24,32.0,25.0,18.0,8.0,5.7,3.0,60,44,30,30.24,30.11,10,4,22,0.00
2014-3-25,37.0,28.6,16.0,19.0,13.3,8.0,82,54,32,30.17,29.87,6,1,15,0.00
2014-3-26,32.0,29.7,22.0,19.0,9.9,1.0,61,44,29,30.22,29.75,19,9,35,0.00
2014-3-27,43.0,30.7,19.0,19.0,9.7,6.0,62,43,23,30.41,30.22,9,4,22,0.00
2014-3-28,52.0,42.1,32.0,51.0,36.3,18.0,98,81,46,30.26,29.97,4,0,11,0.08
2014-3-29,50.0,45.7,40.0,48.0,43.1,38.0,99,91,75,30.19,29.71,6,2,14,1.90
2014-3-30,46.0,42.4,39.0,45.0,39.5,-99.9,99,93,87,29.72,29.50,18,7,30,1.81
2014-3-31,53.0,42.7,35.0,37.0,33.7,27.0,94,72,48,30.08,29.67,13,6,30,0.27
2014-4-13,80.0,58.8,43.0,57.0,45.4,-99.9,85,67,36,30.19,29.94,10,2,24,0.00
2014-4-14,77.0,67.0,59.0,59.0,55.9,54.0,91,69,45,30.00,29.82,15,5,27,0.00
2014-4-15,62.0,54.5,33.0,62.0,52.6,32.0,99,94,80,29.89,29.50,11,5,26,0.92
2014-4-16,46.0,36.2,28.0,31.0,20.5,16.0,96,56,32,30.56,29.90,14,6,32,0.02
2014-4-17,49.0,39.8,31.0,32.0,23.1,17.0,84,52,33,30.73,30.58,7,2,13,0.01
2014-4-18,48.0,40.5,31.0,35.0,29.8,26.0,91,67,46,30.60,30.26,4,1,10,0.00
2014-4-19,67.0,52.7,35.0,39.0,29.2,22.0,92,47,19,30.35,30.21,13,4,22,0.00
2014-4-20,57.0,49.0,40.0,32.0,26.6,-99.9,74,43,29,30.48,30.32,7,2,16,0.00
2014-4-21,68.0,49.8,32.0,43.0,30.2,19.0,89,55,18,30.33,29.88,7,1,16,0.00
2014-4-22,72.0,55.8,41.0,55.0,46.8,39.0,94,74,42,29.88,29.50,10,2,16,0.02
2014-4-23,57.0,50.7,42.0,52.0,38.9,30.0,91,65,46,29.83,29.48,18,9,33,0.02
2014-4-24,60.0,48.2,40.0,33.0,19.3,11.0,70,36,15,30.02,29.82,17,8,32,0.00
2014-4-25,63.0,50.3,36.0,41.0,25.2,19.0,83,40,23,30.05,29.78,7,2,19,0.01
2014-4-26,65.0,51.6,44.0,50.0,44.4,39.0,97,79,42,29.87,29.69,10,2,21,0.79
2014-4-27,55.0,49.1,45.0,39.0,34.2,-99.9,74,59,46,30.11,29.86,12,6,23,0.01
2014-4-28,65.0,54.0,37.0,40.0,34.5,29.0,93,52,28,30.12,30.00,7,2,15,0.00
2014-4-29,52.0,45.5,41.0,41.0,39.1,37.0,92,79,61,30.42,30.11,7,3,19,0.09
2014-4-30,47.0,42.5,39.0,46.0,41.3,37.0,98,96,87,30.41,30.01,5,2,20,3.27
2014-5-1,77.0,62.0,47.0,61.0,52.3,44.0,100,76,32,29.99,29.66,11,2,24,1.77
2014-5-2,66.0,60.0,52.0,52.0,42.3,36.0,93,56,34,29.84,29.70,10,4,24,0.01
2014-5-3,67.0,56.8,44.0,50.0,41.9,36.0,94,60,36,29.87,29.72,9,2,22,0.02
2014-5-4,64.0,55.1,49.0,50.0,38.1,-99.9,94,58,29,29.78,29.62,12,5,23,0.13
2014-5-5,67.0,56.5,48.0,38.0,32.4,23.0,68,43,21,29.89,29.78,14,7,34,0.10
2014-5-6,66.0,57.3,49.0,37.0,31.6,26.0,57,39,26,30.05,29.87,11,3,22,0.00
2014-5-7,54.0,54.0,54.0,29.0,29.0,29.0,38,38,38,30.06,30.06,3,3,6,0.00
2014-5-13,67.0,60.2,54.0,46.0,44.3,43.0,72,57,42,30.27,30.19,5,2,10,0.00
2014-5-14,71.0,57.4,48.0,60.0,50.3,43.0,97,78,57,30.30,30.22,7,1,17,0.00
2014-5-15,69.0,62.9,58.0,67.0,62.2,57.0,99,98,93,30.24,30.08,6,1,15,0.57
2014-5-16,68.0,65.5,58.0,67.0,64.7,57.0,100,97,92,30.07,29.80,17,4,37,1.19
2014-5-17,69.0,59.3,50.0,57.0,45.2,38.0,98,64,36,30.10,29.83,6,3,13,0.90
2014-5-18,64.0,55.0,44.0,45.0,38.0,-99.9,94,58,36,30.19,30.10,8,2,19,0.00
2014-5-19,69.0,56.8,44.0,43.0,31.6,-99.9,69,43,27,30.21,30.06,10,4,23,0.00
2014-5-20,78.0,63.9,50.0,45.0,38.4,-99.9,77,45,20,30.12,29.95,8,3,21,0.00
2014-5-21,73.0,67.7,59.0,56.0,50.1,43.0,73,54,41,29.98,29.88,5,1,13,0.00
2014-5-22,64.0,59.7,58.0,61.0,56.2,-99.9,98,91,67,29.88,29.79,3,1,9,0.38
2014-5-23,71.0,61.0,55.0,59.0,57.2,53.0,99,88,58,29.93,29.83,4,1,11,0.99
2014-5-24,70.0,58.9,54.0,60.0,55.4,52.0,98,89,59,30.07,29.91,5,1,10,1.12
2014-5-25,82.0,64.3,48.0,59.0,47.6,-99.9,100,64,26,30.09,30.00,6,1,15,0.05
2014-5-26,87.0,72.8,55.0,56.0,51.4,43.0,91,53,26,30.05,29.87,9,2,19,0.01
2014-5-27,87.0,75.8,61.0,66.0,59.9,54.0,87,60,35,29.88,29.74,8,2,19,0.00
2014-5-28,72.0,58.7,53.0,64.0,54.8,48.0,96,87,76,30.17,29.78,3,1,10,0.00
2014-5-29,68.0,56.9,48.0,49.0,44.9,41.0,87,66,39,30.22,30.14,5,2,13,0.00
2014-5-30,77.0,61.9,50.0,57.0,49.6,44.0,86,66,35,30.15,29.96,11,1,20,0.01
2014-5-31,71.0,62.6,53.0,53.0,49.2,45.0,88,64,42,30.28,30.07,10,3,23,0.01
2014-6-1,78.0,62.8,49.0,52.0,40.6,-99.9,94,53,21,30.35,30.24,5,1,11,0.00
2014-6-2,82.0,67.8,48.0,59.0,52.6,44.0,92,61,43,30.26,30.00,7,2,15,0.00
2014-6-3,88.0,71.9,58.0,70.0,63.4,56.0,98,77,48,30.01,29.79,10,1,19,0.40
2014-6-4,82.0,70.9,63.0,67.0,61.5,52.0,99,76,42,29.85,29.73,4,1,9,0.18
2014-6-5,77.0,66.4,60.0,63.0,58.0,49.0,98,77,44,29.79,29.65,7,2,14,0.89
2014-6-6,75.0,65.4,56.0,54.0,51.2,48.0,81,61,46,29.93,29.78,9,4,17,0.02
2014-6-7,83.0,69.3,54.0,59.0,54.3,51.0,90,63,36,30.00,29.91,5,2,13,0.00
2014-6-8,86.0,70.2,56.0,62.0,53.4,-99.9,96,63,32,29.95,29.85,5,1,18,0.00
2014-6-9,68.0,64.1,61.0,64.0,61.5,57.0,98,92,67,29.96,29.88,1,0,4,0.64
2014-6-10,76.0,68.7,63.0,69.0,66.2,62.0,99,92,78,29.97,29.92,2,0,6,0.01
2014-6-11,68.0,64.1,60.0,67.0,60.7,57.0,97,89,77,30.11,29.97,2,0,10,0.06
2014-6-12,68.0,62.7,58.0,66.0,61.3,57.0,98,96,86,30.09,29.92,1,0,6,0.06
2014-6-13,79.0,68.1,64.0,72.0,66.7,64.0,99,95,77,29.92,29.71,20,1,52,0.99
2014-6-14,72.0,66.0,59.0,67.0,57.4,48.0,99,76,51,30.01,29.78,9,4,18,0.59
2014-6-15,79.0,64.8,54.0,58.0,51.2,-99.9,92,68,45,30.10,30.01,8,3,18,0.00
2014-6-16,84.0,69.2,55.0,61.0,58.0,54.0,96,71,45,30.15,30.03,5,1,14,0.00
2014-6-17,91.0,78.1,63.0,69.0,64.6,60.0,92,66,40,30.06,29.87,6,1,11,0.00
2014-6-18,87.0,80.9,72.0,70.0,65.8,62.0,80,61,45,29.96,29.78,11,4,22,0.00
2014-6-19,79.0,70.3,64.0,69.0,65.9,59.0,97,86,70,30.01,29.92,4,1,9,0.19
2014-6-20,78.0,69.7,56.0,55.0,49.4,43.0,84,52,30,30.00,29.89,5,2,15,0.03
2014-6-21,79.0,67.1,53.0,55.0,50.3,47.0,89,57,36,29.98,29.86,4,1,8,0.00
2014-6-22,80.0,67.6,56.0,58.0,51.8,-99.9,92,62,42,30.01,29.91,5,1,10,0.00
2014-6-23,81.0,69.1,55.0,61.0,57.3,54.0,96,69,45,30.14,30.02,5,1,13,0.00
2014-6-24,83.0,71.1,58.0,64.0,59.6,56.0,94,69,46,30.14,29.99,7,2,16,0.00
2014-6-25,86.0,76.5,65.0,73.0,68.8,57.0,93,78,62,30.01,29.81,6,3,15,0.00
2014-6-26,84.0,75.0,68.0,70.0,68.5,64.0,99,82,59,29.95,29.79,6,2,15,0.57
2014-6-27,85.0,75.7,67.0,66.0,60.8,52.0,90,64,33,30.21,29.95,4,1,12,0.14
2014-6-28,88.0,73.6,58.0,64.0,57.2,50.0,96,62,28,30.27,30.19,3,1,10,0.00
2014-6-29,84.0,71.8,59.0,65.0,55.7,-99.9,95,63,43,30.25,30.10,6,2,14,0.00
2014-6-30,86.0,73.5,59.0,67.0,62.1,57.0,94,70,46,30.12,29.93,8,2,14,0.00
2014-7-1,90.0,79.8,66.0,73.0,69.1,65.0,95,72,52,29.95,29.79,7,3,16,0.00
2014-7-2,91.0,79.8,72.0,76.0,72.5,69.0,98,80,60,29.93,29.79,9,2,21,0.63
2014-7-3,89.0,75.4,68.0,76.0,71.5,67.0,99,89,63,29.99,29.86,7,1,13,2.97
2014-7-4,72.0,67.9,64.0,68.0,63.3,54.0,99,86,60,30.00,29.89,7,3,21,3.03
2014-7-5,81.0,71.1,61.0,55.0,52.0,48.0,71,53,35,30.13,30.00,11,4,20,0.03
2014-7-6,85.0,71.4,59.0,60.0,51.4,-99.9,89,56,34,30.09,29.91,9,2,18,0.00
2014-7-7,90.0,79.9,70.0,68.0,65.4,60.0,81,63,47,29.92,29.71,8,4,19,0.00
2014-7-8,91.0,78.9,68.0,72.0,69.0,67.0,99,75,47,29.85,29.64,13,3,24,0.41
2014-7-9,87.0,74.2,68.0,68.0,66.4,64.0,96,79,48,29.92,29.74,4,1,20,0.60
2014-7-10,86.0,73.0,64.0,67.0,64.6,61.0,99,78,48,30.12,29.94,2,1,7,0.60
2014-7-11,85.0,75.8,66.0,66.0,60.4,55.0,94,61,39,30.20,30.12,4,1,10,0.01
2014-7-12,86.0,73.9,62.0,66.0,62.4,58.0,97,71,46,30.22,30.11,6,2,15,0.00
2014-7-13,84.0,73.4,70.0,74.0,66.3,60.0,89,76,66,30.11,29.86,7,2,16,0.00
2014-7-14,83.0,74.0,70.0,74.0,71.1,68.0,98,92,72,29.91,29.81,4,1,11,1.41
2014-7-15,81.0,75.0,72.0,75.0,72.3,71.0,98,92,80,29.81,29.71,3,1,8,0.98
2014-7-16,82.0,73.7,66.0,72.0,64.6,57.0,99,76,44,29.87,29.72,4,1,9,0.44
2014-7-17,80.0,70.5,61.0,62.0,58.4,54.0,92,69,41,30.09,29.87,5,1,12,0.01
2014-7-18,82.0,70.4,57.0,61.0,55.4,51.0,95,63,35,30.22,30.11,5,1,12,0.00
2014-7-19,79.0,69.3,61.0,63.0,60.7,58.0,89,75,56,30.24,30.18,2,0,6,0.00
2014-7-20,80.0,69.1,63.0,64.0,59.1,57.0,90,72,50,30.18,30.09,4,1,9,0.00
2014-7-21,86.0,74.9,59.0,65.0,61.8,57.0,95,66,44,30.19,30.11,4,1,10,0.00
2014-7-22,88.0,78.2,64.0,70.0,67.8,63.0,97,72,56,30.16,30.02,6,2,12,0.00
2014-7-23,91.0,79.6,69.0,74.0,70.2,65.0,95,74,57,30.02,29.75,7,2,14,0.10
2014-7-24,80.0,73.4,69.0,70.0,63.8,55.0,92,73,51,29.91,29.78,5,3,12,0.10
2014-7-25,83.0,72.4,59.0,61.0,56.4,54.0,87,60,38,30.03,29.91,4,1,11,0.00
2014-7-26,81.0,69.4,61.0,70.0,63.5,59.0,96,83,61,29.99,29.88,4,1,11,0.09
2014-7-27,86.0,73.6,67.0,72.0,66.5,66.0,99,78,51,29.89,29.64,6,2,14,0.18
2014-7-28,81.0,71.9,68.0,70.0,66.7,62.0,97,85,54,29.64,29.49,11,3,22,0.38
2014-7-29,75.0,66.3,58.0,59.0,54.7,52.0,88,68,46,29.96,29.67,8,4,20,0.08
2014-7-30,79.0,67.2,54.0,59.0,54.9,50.0,96,68,39,30.03,29.96,4,1,9,0.00
2014-7-31,82.0,62.5,57.0,65.0,55.5,56.0,97,78,47,30.12,30.03,5,1,12,0.10
2014-8-1,83.0,67.2,61.0,69.0,64.5,60.0,99,92,59,30.22,30.13,6,1,17,4.68
2014-8-2,75.0,67.9,64.0,67.0,65.2,62.0,99,91,70,30.19,30.09,4,0,8,0.08
2014-8-3,77.0,66.1,63.0,67.0,62.1,62.0,99,85,67,30.11,30.02,3,0,8,0.04
2014-8-4,85.0,74.2,65.0,68.0,65.4,63.0,96,76,50,30.05,30.00,5,1,10,0.01
2014-8-5,90.0,77.8,63.0,68.0,63.7,59.0,97,66,35,30.03,29.89,5,1,17,0.00
2014-8-6,83.0,73.5,65.0,65.0,62.5,59.0,93,70,46,29.91,29.82,6,2,15,0.00
2014-8-7,81.0,70.0,60.0,60.0,55.4,51.0,88,62,39,30.01,29.89,7,2,14,0.00
2014-8-8,83.0,70.7,57.0,61.0,56.7,53.0,88,64,42,30.08,30.01,5,1,11,0.00
2014-8-9,85.0,72.4,61.0,61.0,56.0,50.0,86,61,30,30.11,30.05,3,1,8,0.00
2014-8-10,88.0,74.1,61.0,64.0,58.8,56.0,88,63,35,30.14,30.06,2,0,8,0.00
2014-8-11,84.0,72.7,60.0,64.0,59.2,54.0,96,66,37,30.13,30.08,5,1,18,0.00
2014-8-12,76.0,71.1,64.0,70.0,66.6,62.0,96,86,74,30.08,29.88,8,2,18,0.07
2014-8-13,82.0,70.1,66.0,69.0,66.6,62.0,98,89,58,29.85,29.64,10,2,21,0.83
2014-8-14,77.0,66.8,59.0,61.0,54.5,52.0,87,67,42,29.87,29.77,6,2,16,0.06
2014-8-15,70.0,62.5,51.0,55.0,52.3,49.0,95,71,51,29.97,29.88,6,2,14,0.00
2014-8-16,77.0,64.5,52.0,57.0,53.0,48.0,97,70,39,30.01,29.90,5,1,12,0.00
2014-8-17,80.0,67.8,58.0,65.0,56.9,55.0,93,69,44,29.91,29.80,7,2,15,0.02
2014-8-18,79.0,68.1,57.0,58.0,55.4,53.0,91,66,42,29.91,29.81,6,2,15,0.02
2014-8-19,84.0,69.1,55.0,64.0,58.0,53.0,93,71,43,29.93,29.86,5,1,12,0.00
2014-8-20,85.0,73.3,63.0,67.0,62.7,58.0,96,72,49,30.01,29.92,4,1,10,0.00
2014-8-21,80.0,71.3,64.0,69.0,63.5,59.0,98,78,60,30.05,29.98,5,1,14,0.34
2014-8-22,75.0,68.2,65.0,66.0,63.9,60.0,98,87,68,30.05,29.98,2,0,5,0.18
2014-8-23,76.0,67.7,62.0,63.0,61.6,59.0,97,82,60,30.11,30.03,2,0,7,0.01
2014-8-24,80.0,66.1,58.0,63.0,59.2,57.0,97,78,52,30.15,30.09,5,1,13,0.00
2014-8-25,89.0,72.9,58.0,67.0,61.5,57.0,97,71,40,30.17,30.10,3,1,7,0.01
2014-8-26,89.0,74.4,62.0,68.0,63.1,60.0,95,71,41,30.16,30.05,5,1,11,0.01
2014-8-27,90.0,74.9,61.0,71.0,65.7,60.0,98,76,49,30.07,29.84,4,1,11,0.00
2014-8-28,78.0,72.1,64.0,70.0,56.7,49.0,88,60,40,30.03,29.84,11,5,19,0.00
2014-8-29,81.0,66.8,55.0,57.0,53.1,50.0,88,64,39,30.24,30.05,4,1,9,0.00
2014-8-30,77.0,67.3,54.0,67.0,59.9,53.0,96,79,54,30.27,30.13,5,1,11,0.00
2014-8-31,88.0,72.9,70.0,75.0,67.0,62.0,93,80,61,30.14,29.94,7,2,18,0.01
2014-9-1,88.0,79.1,71.0,74.0,71.4,70.0,98,79,58,29.99,29.89,5,1,13,0.01
2014-9-2,92.0,81.0,69.0,74.0,69.8,68.0,98,72,49,29.92,29.76,8,2,18,0.00
2014-9-3,85.0,75.1,64.0,70.0,60.9,54.0,84,63,37,30.09,29.78,7,3,19,0.00
2014-9-4,86.0,73.2,58.0,66.0,60.2,56.0,94,67,37,30.19,30.09,7,1,14,0.00
2014-9-5,87.0,75.7,64.0,75.0,69.5,63.0,96,82,63,30.16,30.00,6,1,15,0.00
2014-9-6,93.0,78.7,65.0,76.0,71.1,62.0,98,80,45,29.99,29.80,8,3,20,0.15
2014-9-7,81.0,67.6,61.0,62.0,57.2,53.0,96,71,40,30.18,29.93,7,1,16,0.16
2014-9-8,78.0,65.9,55.0,62.0,55.8,52.0,93,72,41,30.31,30.18,6,1,16,0.01
2014-9-9,73.0,64.9,57.0,62.0,58.4,54.0,92,80,65,30.29,30.14,3,0,10,0.00
2014-9-10,79.0,68.3,58.0,63.0,58.8,55.0,90,73,50,30.14,30.01,4,1,10,0.00
2014-9-11,81.0,71.8,65.0,71.0,65.9,57.0,92,82,66,30.01,29.80,7,3,19,0.00
2014-9-12,77.0,65.8,58.0,56.0,53.0,49.0,81,65,46,30.19,29.95,6,3,16,0.00
2014-9-13,65.0,59.4,56.0,61.0,54.7,49.0,97,84,73,30.19,30.09,5,1,12,0.20
2014-9-14,71.0,57.1,48.0,53.0,47.4,44.0,94,72,40,30.27,30.15,8,2,16,0.09
2014-9-15,73.0,59.1,47.0,52.0,46.9,44.0,94,68,37,30.24,30.07,5,1,9,0.00
2014-9-16,71.0,58.6,51.0,61.0,53.2,50.0,97,84,54,30.07,29.95,7,1,13,0.28
2014-9-17,72.0,58.7,49.0,51.0,47.5,43.0,96,72,36,30.05,29.95,4,1,10,0.18
2014-9-18,75.0,60.2,46.0,53.0,47.7,44.0,96,68,34,30.11,29.95,5,1,12,0.00
2014-9-19,66.0,57.5,49.0,52.0,46.9,42.0,89,69,46,30.37,30.11,4,1,11,0.00
2014-9-20,74.0,62.8,51.0,63.0,56.0,48.0,95,79,62,30.35,30.06,8,2,16,0.00
2014-9-21,76.0,66.8,63.0,69.0,64.4,61.0,98,91,79,30.06,29.60,4,0,10,0.03
2014-9-22,69.0,61.9,52.0,66.0,51.1,40.0,96,71,48,30.15,29.62,11,4,25,0.02
2014-9-23,75.0,56.0,42.0,51.0,44.5,40.0,94,69,36,30.40,30.15,4,1,10,0.00
2014-9-24,72.0,60.8,49.0,56.0,51.4,48.0,96,74,46,30.56,30.41,3,0,13,0.00
2014-9-25,64.0,59.2,56.0,59.0,55.1,52.0,93,87,79,30.47,30.22,5,1,14,0.23
2014-9-26,77.0,63.3,51.0,56.0,53.2,49.0,96,73,37,30.22,30.15,6,1,14,0.02
2014-9-27,85.0,68.5,55.0,60.0,55.8,52.0,91,68,36,30.22,30.14,5,1,16,0.00
2014-9-28,87.0,67.9,54.0,63.0,58.0,53.0,97,73,40,30.16,30.00,5,0,10,0.00
2014-9-29,78.0,67.1,59.0,65.0,60.7,57.0,94,81,56,30.00,29.88,2,0,5,0.00
2014-9-30,70.0,64.2,60.0,65.0,60.6,58.0,98,89,74,29.99,29.91,3,1,10,0.00
2014-10-1,64.0,61.1,58.0,60.0,57.7,56.0,94,89,83,30.08,29.98,5,1,11,0.00
2014-10-2,69.0,61.6,57.0,58.0,56.7,55.0,96,85,64,30.14,30.07,7,1,14,0.00
2014-10-3,71.0,60.4,51.0,57.0,52.4,47.0,97,77,45,30.12,29.85,5,1,14,0.00
2014-10-4,67.0,60.2,51.0,65.0,55.9,39.0,99,87,64,29.85,29.48,7,2,15,1.02
2014-10-5,61.0,48.9,39.0,40.0,36.5,33.0,92,63,40,29.99,29.69,6,2,14,0.01
2014-10-6,69.0,54.6,38.0,53.0,45.0,37.0,97,73,42,30.07,29.99,9,2,19,0.00
2014-10-7,72.0,64.2,57.0,61.0,54.9,51.0,94,73,47,30.05,29.90,7,3,18,0.01
2014-10-8,72.0,64.0,58.0,62.0,52.8,42.0,97,70,40,29.93,29.75,10,4,26,0.59
2014-10-9,66.0,54.7,42.0,45.0,41.7,39.0,97,65,37,30.04,29.93,9,2,22,0.18
2014-10-10,62.0,53.6,43.0,48.0,42.5,40.0,91,68,47,30.13,30.03,3,0,7,0.00
2014-10-11,54.0,49.5,44.0,50.0,47.4,43.0,98,92,82,30.17,30.04,5,0,9,0.35
2014-10-12,64.0,49.3,40.0,45.0,40.7,36.0,98,76,37,30.32,30.16,4,0,10,0.01
2014-10-13,63.0,53.4,41.0,60.0,49.8,40.0,98,88,73,30.34,30.23,4,0,11,0.04
2014-10-14,76.0,67.5,61.0,67.0,63.5,60.0,99,88,69,30.23,30.09,7,2,19,0.04
2014-10-15,77.0,70.8,68.0,69.0,67.3,64.0,98,89,77,30.09,29.82,9,3,27,0.96
2014-10-16,72.0,65.8,54.0,68.0,61.8,53.0,99,89,59,29.83,29.66,7,2,18,1.86
2014-10-17,71.0,61.7,54.0,56.0,53.3,51.0,98,76,50,29.72,29.65,7,2,21,0.07
2014-10-18,68.0,58.1,50.0,56.0,50.4,44.0,98,77,49,29.70,29.55,8,2,21,0.00
2014-10-19,54.0,48.3,41.0,45.0,35.1,28.0,73,60,44,30.05,29.70,12,6,29,0.00
2014-10-20,59.0,45.6,34.0,43.0,35.8,30.0,90,70,46,30.11,29.96,7,1,14,0.00
2014-10-21,66.0,52.2,45.0,55.0,49.1,43.0,98,90,64,29.96,29.83,3,0,10,0.33
2014-10-22,54.0,52.7,49.0,53.0,50.4,47.0,97,92,84,29.95,29.75,14,5,30,0.42
2014-10-23,51.0,50.2,49.0,49.0,47.3,45.0,95,90,83,29.78,29.70,14,6,26,0.60
2014-10-24,64.0,53.4,48.0,50.0,45.5,41.0,93,75,57,29.83,29.75,9,3,24,0.01
2014-10-25,68.0,57.2,47.0,47.0,42.6,37.0,74,59,43,29.85,29.55,5,2,15,0.00
2014-10-26,59.0,54.7,46.0,51.0,40.5,36.0,90,60,45,29.82,29.53,12,5,28,0.00
2014-10-27,64.0,52.5,42.0,41.0,38.8,36.0,90,61,35,30.03,29.82,8,3,18,0.00
2014-10-28,69.0,52.7,41.0,54.0,46.2,39.0,94,81,55,30.03,29.90,6,0,10,0.00
2014-10-29,70.0,54.5,47.0,61.0,49.4,41.0,98,85,44,29.94,29.83,8,1,20,0.06
2014-10-30,57.0,46.7,38.0,45.0,39.3,36.0,99,78,48,30.02,29.93,6,2,15,0.01
2014-10-31,53.0,45.9,37.0,44.0,37.5,35.0,92,74,54,30.02,29.88,5,1,13,0.01
2014-11-1,47.0,44.1,40.0,43.0,38.1,35.0,92,80,66,29.88,29.78,13,6,30,0.07
2014-11-2,46.0,41.2,38.0,37.0,27.4,19.0,85,60,39,30.03,29.77,16,10,33,0.01
2014-11-3,62.0,48.8,38.0,31.0,25.7,17.0,62,43,18,30.13,30.03,9,4,22,0.00
2014-11-4,71.0,57.2,44.0,39.0,30.9,22.0,70,40,19,30.15,30.00,8,1,15,0.00
2014-11-5,63.0,53.9,44.0,45.0,38.6,30.0,83,58,31,30.13,29.98,6,1,17,0.00
2014-11-6,48.0,46.5,44.0,47.0,44.3,38.0,98,93,74,30.11,29.58,3,0,8,0.31
2014-11-7,50.0,43.8,37.0,45.0,36.2,27.0,99,75,58,29.92,29.56,11,5,25,0.02
2014-11-8,48.0,40.4,32.0,32.0,27.3,24.0,77,59,42,30.03,29.90,7,2,15,0.01
2014-11-9,57.0,46.4,35.0,38.0,34.4,32.0,90,65,41,30.01,29.88,8,1,15,0.00
2014-11-10,63.0,45.5,32.0,41.0,35.0,30.0,95,71,35,30.17,30.01,4,1,10,0.00
2014-11-11,65.0,49.3,36.0,56.0,45.5,35.0,97,87,69,30.15,29.91,6,1,13,0.00
2014-11-12,63.0,51.7,44.0,59.0,45.7,31.0,98,81,50,30.07,29.86,7,2,18,0.00
2014-11-13,47.0,39.6,32.0,34.0,30.1,28.0,96,70,48,30.11,29.98,4,1,9,0.15
2014-11-18,43.0,29.2,22.0,35.0,11.7,3.0,72,49,33,30.07,29.58,12,7,25,0.05
2014-11-19,32.0,25.2,19.0,15.0,8.0,5.0,58,48,33,30.26,30.07,8,3,17,0.00
2014-11-20,44.0,33.8,24.0,25.0,18.6,10.0,76,54,39,30.06,29.83,13,3,30,0.00
2014-11-21,34.0,28.1,21.0,15.0,11.4,9.0,76,50,38,30.49,30.01,11,5,25,0.00
2014-11-22,41.0,30.8,18.0,22.0,15.7,13.0,83,55,32,30.49,30.18,7,2,16,0.00
2014-11-23,57.0,44.9,40.0,34.0,26.6,22.0,72,50,33,30.19,30.01,5,1,12,0.00
2014-11-24,72.0,62.6,43.0,63.0,56.8,35.0,99,83,66,29.99,29.54,14,5,33,1.00
2014-11-25,64.0,53.1,40.0,59.0,38.4,29.0,83,59,39,30.14,29.72,9,2,23,0.02
2014-11-26,43.0,36.4,32.0,37.0,32.7,31.0,97,87,64,30.20,29.80,9,3,22,0.38
2014-11-27,35.0,33.6,31.0,33.0,30.5,26.0,95,88,79,30.06,29.83,7,2,15,0.40
2014-11-28,34.0,28.6,21.0,26.0,20.6,15.0,85,72,53,30.27,30.04,11,3,22,0.02
2014-11-29,34.0,27.3,19.0,26.0,18.6,15.0,88,69,54,30.36,30.21,3,0,8,0.00
2014-11-30,46.0,41.1,34.0,37.0,33.2,26.0,86,74,63,30.21,30.06,5,1,13,0.08
2014-12-1,64.0,47.2,39.0,50.0,39.7,24.0,89,76,60,30.45,30.06,10,2,20,0.07
2014-12-2,38.0,34.8,31.0,37.0,26.6,18.0,97,73,56,30.62,30.30,8,2,17,0.19
2014-12-3,44.0,40.3,37.0,42.0,37.7,27.0,98,91,68,30.31,29.95,10,2,20,0.25
2014-12-4,43.0,36.6,28.0,28.0,23.6,20.0,81,60,45,30.52,30.20,9,3,16,0.01
2014-12-5,38.0,33.0,25.0,37.0,28.2,22.0,97,83,67,30.59,30.35,3,0,9,0.37
2014-12-6,45.0,40.4,38.0,44.0,39.3,36.0,98,96,92,30.35,30.09,13,2,25,1.10
2014-12-7,39.0,34.4,26.0,37.0,20.2,3.0,93,58,31,30.62,30.21,21,9,37,0.37
2014-12-8,31.0,25.4,20.0,26.0,14.1,0.0,83,63,33,30.71,30.37,8,2,20,0.00
2014-12-9,41.0,36.9,31.0,39.0,34.7,26.0,96,92,83,30.37,29.67,15,7,31,0.68
2014-12-10,39.0,32.6,31.0,37.0,28.8,25.0,96,81,75,29.67,29.57,10,6,23,0.01
2014-12-11,36.0,31.5,29.0,27.0,23.3,20.0,89,71,53,29.86,29.58,9,4,19,0.00
2014-12-12,35.0,32.1,30.0,26.0,23.5,21.0,76,70,64,29.99,29.86,11,6,25,0.00
2014-12-13,41.0,36.0,33.0,31.0,27.9,24.0,79,72,56,29.99,29.88,11,5,23,0.00
2014-12-14,44.0,38.7,36.0,33.0,31.3,31.0,82,74,62,29.96,29.86,8,4,21,0.00
2014-12-15,51.0,36.2,28.0,35.0,30.2,26.0,94,80,53,30.12,29.96,3,0,10,0.00
2014-12-16,44.0,37.4,28.0,41.0,35.1,27.0,97,92,84,30.11,29.84,3,0,7,0.20
2014-12-17,52.0,44.5,40.0,43.0,39.3,30.0,98,83,66,29.88,29.79,8,3,20,0.18
2014-12-18,40.0,37.4,36.0,30.0,26.9,23.0,74,66,60,29.98,29.86,15,7,32,0.01
2014-12-19,36.0,33.4,30.0,28.0,23.8,21.0,76,67,57,30.19,29.95,9,5,24,0.00
2014-12-20,32.0,27.5,29.0,24.0,20.2,20.0,79,71,67,30.30,30.18,5,2,13,0.00
2014-12-21,34.0,31.2,29.0,30.0,27.0,23.0,90,84,79,30.34,30.27,5,2,14,0.00
2014-12-22,43.0,37.2,32.0,42.0,34.6,29.0,97,90,85,30.33,30.16,4,1,8,0.05
2014-12-23,45.0,43.5,42.0,44.0,42.5,41.0,99,98,97,30.16,30.07,3,1,11,0.27
2014-12-24,51.0,45.8,44.0,51.0,45.8,44.0,100,99,99,30.09,29.51,2,0,7,0.59
2014-12-25,60.0,49.6,43.0,60.0,39.2,30.0,100,69,46,30.10,29.49,12,6,29,0.14
2014-12-26,51.0,40.6,33.0,32.0,30.4,29.0,86,68,46,30.24,30.09,6,1,14,0.01
2014-12-27,57.0,41.1,32.0,38.0,33.2,29.0,94,74,48,30.26,30.06,3,0,9,0.00
2014-12-28,52.0,44.4,40.0,45.0,37.9,30.0,94,78,68,30.06,29.86,7,2,14,0.02
2014-12-29,41.0,35.7,30.0,29.0,23.3,20.0,81,61,44,30.26,30.06,8,2,17,0.01
2014-12-30,31.0,26.9,22.0,21.0,16.1,11.0,83,64,49,30.41,30.25,6,1,14,0.00
2014-12-31,30.0,24.4,18.0,16.0,12.8,9.0,80,62,41,30.35,30.17,9,2,18,0.00
2015-1-1,37.0,27.3,15.0,19.0,13.0,9.0,85,57,34,30.17,29.96,10,3,26,0.00
2015-1-2,41.0,33.8,27.0,23.0,19.8,18.0,76,57,42,30.45,30.00,9,2,20,0.00